Short Hills, New Jersey
Current Conditions -  °F | °C
As of 1:45 PM on Friday 21 Nov 2014 (Local Time) from KMMU Reporting Station
Few Clouds Few Clouds  
Wind Chill: 28°   Ceiling: Unl
Heat Index: 36°   Visibility: 10mi
Dew Point:   Wind: 12mph
Humidity: 30%   Direction: 330°NNW
Pressure: 30.33"   Gusts: 29mph
Location:  40.75°N, 74.33°W
Report Text: KMMU 211845Z 33010G25KT 10SM FEW050 02/M14 A3033
Loading
Personal Weather Stations






























Interactive Weather Map New forecast layout! Learn more

10-Day Weather Forecast

Advertisements
Track Severe Weather on mobile